Time;durP1;ratioP1;P1;durP2;ratioP2;P2;SDS_P1;SDS_P2;PMS_P1;PMS_P2;Temp;Humidity;BMP_temperature;BMP_pressure;BME280_temperature;BME280_humidity;BME280_pressure;Samples;Min_cycle;Max_cycle;Signal;HPM_P1;HPM_P2
2024/04/10 00:01:28;;;;;;;7.18;1.15;;;;;;;9.28;73.15;101569.34;5403165;26;20503;-52
2024/04/10 00:03:54;;;;;;;8.13;1.33;;;;;;;9.96;70.41;101566.19;5402794;26;20342;-50
2024/04/10 00:06:20;;;;;;;7.45;1.08;;;;;;;9.40;71.60;101570.28;5399857;26;19996;-52
2024/04/10 00:08:46;;;;;;;11.77;2.03;;;;;;;10.06;69.82;101572.53;5402508;26;19999;-51
2024/04/10 00:11:12;;;;;;;9.98;1.30;;;;;;;9.36;72.10;101579.44;5404394;26;20006;-50
2024/04/10 00:13:38;;;;;;;10.07;1.20;;;;;;;9.62;70.27;101576.63;5419808;26;20046;-54
2024/04/10 00:16:08;;;;;;;6.75;1.38;;;;;;;9.88;70.05;101581.88;5402802;26;20014;-55
2024/04/10 00:18:36;;;;;;;4.53;1.25;;;;;;;10.35;68.15;101584.50;5410392;26;19999;-50
2024/04/10 00:21:02;;;;;;;5.13;1.58;;;;;;;9.68;70.20;101590.44;5424471;26;20014;-48
2024/04/10 00:23:28;;;;;;;6.53;1.10;;;;;;;9.55;70.26;101595.81;5417478;26;20019;-55
2024/04/10 00:25:57;;;;;;;9.70;1.70;;;;;;;9.75;70.86;101599.69;5436949;26;20003;-53
2024/04/10 00:28:23;;;;;;;7.55;2.30;;;;;;;10.07;69.50;101603.53;5419776;26;20011;-49
2024/04/10 00:30:49;;;;;;;8.68;1.00;;;;;;;9.79;70.96;101606.53;5439286;26;20003;-49
2024/04/10 00:33:15;;;;;;;7.25;1.10;;;;;;;9.90;70.75;101604.75;5425688;26;20353;-51
2024/04/10 00:35:41;;;;;;;12.75;1.73;;;;;;;9.96;70.89;101611.44;5394490;26;20010;-52
2024/04/10 00:38:07;;;;;;;5.63;1.10;;;;;;;9.69;71.46;101619.63;5437796;26;20079;-52
2024/04/10 00:40:33;;;;;;;7.35;1.15;;;;;;;9.69;71.34;101624.97;5425415;26;20406;-53
2024/04/10 00:43:04;;;;;;;7.88;1.10;;;;;;;9.67;71.72;101628.72;5397941;26;19995;-50
2024/04/10 00:45:37;;;;;;;10.23;1.08;;;;;;;9.81;71.82;101629.38;5431153;26;20010;-50
2024/04/10 00:48:04;;;;;;;11.18;2.70;;;;;;;9.60;72.51;101637.09;5430068;26;20056;-51
2024/04/10 00:50:31;;;;;;;12.32;1.30;;;;;;;9.40;73.50;101637.66;5402825;26;19999;-54
2024/04/10 00:52:57;;;;;;;9.15;1.50;;;;;;;9.38;73.43;101642.28;5406004;26;20004;-52
2024/04/10 00:55:25;;;;;;;10.38;1.70;;;;;;;9.49;73.49;101647.66;5405304;26;20014;-54
2024/04/10 00:57:51;;;;;;;7.57;1.27;;;;;;;9.85;71.79;101652.19;5408033;26;20007;-53
2024/04/10 01:00:17;;;;;;;6.82;1.48;;;;;;;9.72;72.13;101667.34;5407946;26;20003;-49
2024/04/10 01:02:42;;;;;;;7.38;1.40;;;;;;;9.22;74.59;101661.06;5441340;26;20075;-49
2024/04/10 01:05:08;;;;;;;6.40;1.40;;;;;;;9.42;73.59;101665.03;5425941;26;20006;-52
2024/04/10 01:07:34;;;;;;;6.82;1.10;;;;;;;9.56;73.36;101672.03;5390075;26;20010;-52
2024/04/10 01:09:59;;;;;;;5.45;1.33;;;;;;;9.43;73.17;101681.84;5444266;26;20010;-53
2024/04/10 01:12:28;;;;;;;11.05;1.27;;;;;;;9.28;74.17;101675.75;5401425;26;20012;-53
2024/04/10 01:14:54;;;;;;;8.65;1.67;;;;;;;9.42;74.14;101680.13;5416433;26;20003;-51
2024/04/10 01:20:17;;;;;;;3.75;0.95;;;;;;;9.94;71.82;101706.59;5422650;25;20038;-55
2024/04/10 01:22:43;;;;;;;10.60;1.15;;;;;;;9.56;73.67;101704.81;5425671;26;20039;-52
2024/04/10 01:25:08;;;;;;;8.40;1.58;;;;;;;9.86;72.53;101701.81;5429144;26;20015;-52
2024/04/10 01:27:34;;;;;;;7.75;1.63;;;;;;;10.02;72.38;101706.88;5430004;26;19999;-53
2024/04/10 01:30:00;;;;;;;4.30;1.15;;;;;;;9.74;74.00;101702.66;5432960;26;20017;-49
2024/04/10 01:32:25;;;;;;;7.47;1.45;;;;;;;9.30;73.67;101703.09;5395694;26;19999;-48
2024/04/10 01:34:51;;;;;;;9.20;1.08;;;;;;;9.53;72.90;101714.84;5429968;26;20070;-53
2024/04/10 01:37:17;;;;;;;4.25;0.80;;;;;;;9.66;72.06;101713.03;5432296;26;20075;-51
2024/04/10 01:39:43;;;;;;;5.38;1.38;;;;;;;10.00;70.88;101727.47;5419857;26;20495;-48
2024/04/10 01:42:08;;;;;;;5.28;1.00;;;;;;;9.57;71.82;101734.97;5424155;25;19999;-53
2024/04/10 01:44:34;;;;;;;3.25;0.82;;;;;;;9.63;70.49;101737.19;5454551;26;19999;-49
2024/04/10 01:47:00;;;;;;;5.40;0.60;;;;;;;9.93;69.12;101736.84;5465522;26;20082;-47
2024/04/10 01:49:26;;;;;;;5.05;0.75;;;;;;;9.84;69.02;101743.66;5424714;26;20003;-51
2024/04/10 01:51:52;;;;;;;2.38;0.60;;;;;;;9.46;69.82;101751.69;5451202;26;20003;-53
2024/04/10 01:54:19;;;;;;;0.55;0.45;;;;;;;8.68;72.28;101761.38;5416586;25;20022;-52
2024/04/10 01:56:45;;;;;;;0.98;0.50;;;;;;;9.08;70.79;101761.38;5466813;26;19999;-55
2024/04/10 01:59:11;;;;;;;1.15;0.40;;;;;;;9.48;68.43;101771.03;5426668;25;20015;-52
2024/04/10 02:01:37;;;;;;;0.95;0.35;;;;;;;9.08;70.02;101778.19;5430195;26;20032;-52
2024/04/10 02:04:02;;;;;;;0.25;0.20;;;;;;;8.84;69.55;101771.84;5468736;26;20014;-52
2024/04/10 02:06:28;;;;;;;2.72;0.30;;;;;;;8.89;71.06;101779.50;5465714;26;20022;-55
2024/04/10 02:08:54;;;;;;;0.60;0.13;;;;;;;9.27;69.32;101791.09;5466016;26;20002;-54
2024/04/10 02:11:23;;;;;;;0.35;0.28;;;;;;;8.98;71.04;101782.44;5430143;26;20018;-52
2024/04/10 02:13:48;;;;;;;1.65;0.30;;;;;;;8.96;71.11;101786.97;5415987;26;20014;-49
2024/04/10 02:16:14;;;;;;;0.80;0.20;;;;;;;9.08;70.21;101790.63;5468923;26;19998;-48
2024/04/10 02:18:40;;;;;;;2.40;0.60;;;;;;;9.07;70.66;101794.22;5465791;26;20014;-50
2024/04/10 02:21:06;;;;;;;1.08;0.17;;;;;;;9.14;70.10;101793.72;5432013;26;20003;-50
2024/04/10 02:23:32;;;;;;;2.72;0.60;;;;;;;8.76;72.51;101803.41;5421527;25;20044;-54
2024/04/10 02:26:07;;;;;;;3.05;0.40;;;;;;;8.86;72.90;101804.47;5430767;26;19999;-54
2024/04/10 02:28:33;;;;;;;3.35;0.38;;;;;;;9.21;71.17;101808.31;5430643;25;19998;-50
2024/04/10 02:30:59;;;;;;;3.63;0.47;;;;;;;8.92;72.87;101813.88;5432146;25;20019;-53
2024/04/10 02:33:24;;;;;;;0.65;0.20;;;;;;;8.75;73.21;101813.16;5465894;26;20411;-50
2024/04/10 02:35:50;;;;;;;3.40;0.50;;;;;;;9.34;71.30;101826.97;5460454;26;20014;-45
2024/04/10 02:38:16;;;;;;;2.22;0.40;;;;;;;9.28;71.60;101826.53;5420386;25;20018;-49
2024/04/10 02:40:42;;;;;;;3.20;0.57;;;;;;;9.16;73.06;101837.03;5464461;26;20449;-50
2024/04/10 02:43:07;;;;;;;2.28;0.40;;;;;;;8.77;74.96;101843.19;5426337;26;20018;-52
2024/04/10 02:45:33;;;;;;;3.42;0.45;;;;;;;9.25;74.10;101843.56;5460594;25;20400;-50
2024/04/10 02:48:00;;;;;;;2.95;0.60;;;;;;;9.56;73.23;101842.38;5459300;26;20452;-51
2024/04/10 02:50:26;;;;;;;4.88;0.63;;;;;;;9.54;73.08;101855.78;5430461;25;19999;-49
2024/04/10 02:52:51;;;;;;;3.38;0.65;;;;;;;9.27;73.61;101852.28;5425557;26;20016;-50
2024/04/10 02:55:17;;;;;;;2.72;0.60;;;;;;;9.51;73.50;101858.66;5417898;26;20399;-47
2024/04/10 02:57:43;;;;;;;2.83;0.50;;;;;;;9.35;74.07;101865.06;5398484;26;20003;-47
2024/04/10 03:00:10;;;;;;;5.38;0.60;;;;;;;9.36;74.23;101867.63;5429552;26;19995;-49
2024/04/10 03:02:37;;;;;;;2.97;0.57;;;;;;;9.42;73.65;101875.22;5425399;26;19999;-51
2024/04/10 03:05:05;;;;;;;1.92;0.85;;;;;;;9.39;73.61;101886.09;5422416;26;19999;-52
2024/04/10 03:07:31;;;;;;;8.27;1.00;;;;;;;9.44;74.08;101894.63;5424935;26;19999;-53
2024/04/10 03:09:57;;;;;;;3.80;0.85;;;;;;;9.51;74.25;101897.72;5400558;26;20025;-55
2024/04/10 03:12:23;;;;;;;3.55;0.95;;;;;;;9.53;73.89;101901.16;5422895;26;19999;-50
2024/04/10 03:14:48;;;;;;;3.90;0.93;;;;;;;9.52;72.54;101905.63;5422471;25;20070;-52
2024/04/10 03:17:16;;;;;;;7.35;1.08;;;;;;;9.62;72.78;101904.03;5431384;26;20010;-46
2024/04/10 03:19:42;;;;;;;5.70;1.10;;;;;;;9.66;73.50;101911.81;5426047;26;20004;-50
2024/04/10 03:22:11;;;;;;;7.30;1.27;;;;;;;9.69;73.09;101922.25;5424820;26;20064;-51
2024/04/10 03:24:37;;;;;;;9.15;1.48;;;;;;;9.60;72.61;101924.56;5428680;26;19994;-50
2024/04/10 03:27:03;;;;;;;7.43;1.23;;;;;;;9.44;73.44;101937.19;5420611;26;20083;-52
2024/04/10 03:29:28;;;;;;;10.45;1.98;;;;;;;9.59;72.40;101949.50;5428514;26;20015;-54
2024/04/10 03:31:54;;;;;;;7.65;1.63;;;;;;;9.40;73.91;101950.78;5420758;26;20002;-53
2024/04/10 03:34:20;;;;;;;8.63;1.70;;;;;;;9.53;73.81;101954.38;5418704;26;20357;-52
2024/04/10 03:36:46;;;;;;;10.10;2.50;;;;;;;9.68;71.20;101955.13;5426235;26;20019;-47
2024/04/10 03:39:12;;;;;;;10.25;2.10;;;;;;;9.54;72.77;101956.91;5419292;26;20002;-50
2024/04/10 03:41:37;;;;;;;10.32;1.75;;;;;;;9.49;73.13;101963.50;5426116;26;20015;-51
2024/04/10 03:44:05;;;;;;;6.03;1.73;;;;;;;9.35;73.63;101964.38;5422466;26;20569;-50
2024/04/10 03:46:34;;;;;;;10.45;1.50;;;;;;;9.63;72.76;101971.44;5428729;26;20568;-53
2024/04/10 03:49:00;;;;;;;8.95;2.83;;;;;;;9.75;72.83;101975.06;5428587;26;19998;-52
2024/04/10 03:51:26;;;;;;;10.77;2.10;;;;;;;9.65;72.40;101974.84;5431900;26;20584;-51
2024/04/10 03:53:52;;;;;;;5.00;1.45;;;;;;;9.72;72.60;101975.28;5431016;25;20003;-55
2024/04/10 03:56:18;;;;;;;6.32;2.00;;;;;;;9.65;73.71;101987.31;5421171;26;20008;-56
2024/04/10 03:58:48;;;;;;;11.68;2.20;;;;;;;9.62;73.96;101986.53;5433416;25;20022;-53
2024/04/10 04:01:17;;;;;;;10.48;1.95;;;;;;;9.63;73.78;101995.38;5430869;26;19999;-53
2024/04/10 04:03:43;;;;;;;6.70;1.80;;;;;;;9.62;74.00;102002.50;5413506;26;20751;-54
2024/04/10 04:06:09;;;;;;;11.40;1.98;;;;;;;9.77;73.76;102011.31;5433360;26;20016;-53
2024/04/10 04:08:35;;;;;;;16.15;2.78;;;;;;;9.87;73.38;102023.06;5437997;26;20009;-47
2024/04/10 04:11:04;;;;;;;16.38;2.30;;;;;;;9.69;73.58;102021.59;5419225;26;19996;-56
2024/04/10 04:13:30;;;;;;;15.82;2.72;;;;;;;9.68;74.35;102027.88;5455901;25;19996;-52
2024/04/10 04:15:56;;;;;;;12.82;2.05;;;;;;;9.76;72.43;102028.22;5427799;26;19999;-50
2024/04/10 04:18:22;;;;;;;9.82;2.28;;;;;;;9.75;72.61;102034.50;5459691;25;20074;-50
2024/04/10 04:20:48;;;;;;;13.38;2.15;;;;;;;9.59;73.09;102040.00;5431087;26;20036;-53
2024/04/10 04:23:14;;;;;;;13.55;3.05;;;;;;;9.55;73.29;102040.28;5423756;26;20339;-51
2024/04/10 04:25:40;;;;;;;14.07;2.33;;;;;;;9.55;72.98;102045.59;5462508;25;19999;-52
2024/04/10 04:28:06;;;;;;;11.85;2.42;;;;;;;9.24;74.91;102057.34;5424542;26;19999;-52
2024/04/10 04:30:32;;;;;;;12.93;2.75;;;;;;;9.33;73.88;102070.03;5422449;26;20015;-49
2024/04/10 04:32:59;;;;;;;18.90;2.63;;;;;;;9.14;74.28;102064.16;5465394;26;20450;-49
2024/04/10 04:35:25;;;;;;;16.75;2.83;;;;;;;9.41;73.49;102078.41;5421618;26;20080;-52
2024/04/10 04:37:56;;;;;;;14.52;2.78;;;;;;;9.41;74.40;102083.75;5467596;26;20319;-51
2024/04/10 04:40:22;;;;;;;11.77;2.58;;;;;;;9.40;74.61;102095.34;5430496;25;20003;-50
2024/04/10 04:42:48;;;;;;;22.92;3.25;;;;;;;9.33;73.76;102096.63;5467721;26;20003;-49
2024/04/10 04:45:16;;;;;;;10.98;2.65;;;;;;;9.23;74.37;102112.34;5424869;25;20109;-51
2024/04/10 04:47:42;;;;;;;15.32;2.90;;;;;;;9.50;74.00;102112.44;5429118;26;19998;-51
2024/04/10 04:50:08;;;;;;;13.48;2.90;;;;;;;9.44;73.37;102112.84;5428981;25;19999;-50
2024/04/10 04:52:34;;;;;;;9.57;2.33;;;;;;;9.57;73.40;102112.91;5431203;25;20342;-55
2024/04/10 04:55:01;;;;;;;7.68;2.17;;;;;;;9.61;73.02;102117.94;5423701;26;20338;-50
2024/04/10 04:57:27;;;;;;;15.27;2.42;;;;;;;9.43;73.29;102124.41;5431328;25;20014;-48
2024/04/10 04:59:53;;;;;;;21.58;3.45;;;;;;;9.42;73.93;102138.69;5466176;25;20003;-48
2024/04/10 05:02:19;;;;;;;13.82;2.97;;;;;;;9.14;75.02;102135.97;5421241;26;20359;-51
2024/04/10 05:04:54;;;;;;;15.35;3.15;;;;;;;9.09;75.19;102156.69;5426062;26;20014;-48
2024/04/10 05:07:20;;;;;;;14.63;3.03;;;;;;;9.27;74.59;102152.03;5427470;26;20014;-52
2024/04/10 05:09:53;;;;;;;15.73;3.22;;;;;;;9.38;74.21;102158.47;5428944;26;19999;-55
2024/04/10 05:12:19;;;;;;;19.77;2.88;;;;;;;9.24;74.29;102167.25;5429395;25;20541;-49
2024/04/10 05:14:51;;;;;;;24.38;3.75;;;;;;;9.13;75.59;102174.16;5464434;26;20010;-48
2024/04/10 05:17:18;;;;;;;15.38;2.42;;;;;;;9.23;74.82;102178.00;5460353;26;20017;-47
2024/04/10 05:19:43;;;;;;;18.33;3.10;;;;;;;9.38;74.19;102185.06;5429133;25;20300;-48
2024/04/10 05:22:09;;;;;;;14.63;2.75;;;;;;;8.95;76.27;102199.22;5466905;26;20426;-51
2024/04/10 05:24:35;;;;;;;13.25;2.78;;;;;;;9.09;76.57;102208.09;5425895;25;19999;-50
2024/04/10 05:27:05;;;;;;;18.58;2.90;;;;;;;9.31;74.95;102205.00;5430693;26;20391;-51
2024/04/10 05:29:31;;;;;;;23.02;4.30;;;;;;;9.48;74.52;102209.28;5423636;25;20342;-52
2024/04/10 05:31:58;;;;;;;16.73;3.88;;;;;;;9.48;73.99;102218.13;5425963;25;20494;-54
2024/04/10 05:34:25;;;;;;;14.18;2.70;;;;;;;9.62;73.57;102223.44;5423968;26;20003;-50
2024/04/10 05:36:53;;;;;;;17.88;2.92;;;;;;;9.67;73.82;102223.16;5430225;25;20005;-52
2024/04/10 05:39:21;;;;;;;14.48;3.17;;;;;;;10.09;73.34;102224.06;5462559;25;19995;-52
2024/04/10 05:41:47;;;;;;;11.73;2.72;;;;;;;10.58;73.15;102221.75;5430455;25;20011;-52
2024/04/10 05:44:13;;;;;;;14.57;3.67;;;;;;;10.29;71.34;102228.94;5422370;25;20032;-47
2024/04/10 05:46:39;;;;;;;19.23;3.58;;;;;;;10.48;70.52;102233.97;5419447;26;20003;-49
2024/04/10 05:49:06;;;;;;;16.70;3.78;;;;;;;10.42;70.38;102244.03;5463475;26;20006;-52
2024/04/10 05:51:32;;;;;;;14.85;3.30;;;;;;;10.66;70.05;102249.63;5418161;25;20018;-47
2024/04/10 05:53:58;;;;;;;19.15;3.50;;;;;;;10.52;70.16;102248.78;5421256;26;19999;-50
2024/04/10 05:56:25;;;;;;;9.43;2.50;;;;;;;10.22;71.22;102263.13;5425588;25;19998;-49
2024/04/10 05:58:51;;;;;;;16.70;3.53;;;;;;;10.42;70.87;102269.88;5430982;26;20003;-47
2024/04/10 06:01:17;;;;;;;18.25;3.13;;;;;;;10.61;70.34;102274.88;5456164;26;20010;-54
2024/04/10 06:03:45;;;;;;;17.33;3.47;;;;;;;10.19;71.50;102282.00;5397044;26;20920;-52
2024/04/10 06:06:13;;;;;;;18.95;4.57;;;;;;;10.31;71.20;102286.53;5425593;26;19995;-51
2024/04/10 06:08:42;;;;;;;20.52;3.83;;;;;;;10.29;71.71;102291.09;5423130;25;19995;-53
2024/04/10 06:11:08;;;;;;;13.80;3.15;;;;;;;10.38;70.91;102300.31;5427255;26;19999;-51
2024/04/10 06:13:34;;;;;;;15.48;3.13;;;;;;;10.46;69.91;102295.38;5418245;25;20014;-53
2024/04/10 06:16:04;;;;;;;18.98;4.45;;;;;;;10.72;69.28;102304.34;5424641;26;20517;-50
2024/04/10 06:18:30;;;;;;;21.02;4.63;;;;;;;10.85;69.05;102302.59;5394705;26;20003;-50
2024/04/10 06:21:00;;;;;;;17.40;3.80;;;;;;;10.81;69.23;102306.41;5426392;26;20014;-52
2024/04/10 06:23:31;;;;;;;15.13;3.30;;;;;;;10.68;69.78;102309.03;5428950;26;20003;-53
2024/04/10 06:25:58;;;;;;;19.08;3.70;;;;;;;10.60;70.55;102311.34;5432137;26;20015;-52
2024/04/10 06:28:27;;;;;;;16.40;3.88;;;;;;;10.94;68.76;102314.47;5430635;26;20447;-52
2024/04/10 06:30:57;;;;;;;27.58;4.65;;;;;;;10.84;69.21;102318.69;5431441;26;19998;-48
2024/04/10 06:33:23;;;;;;;24.33;4.88;;;;;;;11.20;67.92;102311.75;5422780;26;20010;-46
2024/04/10 06:35:49;;;;;;;19.88;4.30;;;;;;;11.12;67.59;102324.75;5429985;26;19995;-53
2024/04/10 06:38:15;;;;;;;19.73;4.68;;;;;;;11.18;68.20;102321.66;5425220;26;19999;-52
2024/04/10 06:40:42;;;;;;;17.90;4.00;;;;;;;11.36;67.97;102330.25;5397576;26;19999;-47
2024/04/10 06:43:07;;;;;;;25.58;4.65;;;;;;;11.17;67.97;102338.63;5430469;26;20335;-55
2024/04/10 06:45:33;;;;;;;24.00;4.95;;;;;;;11.35;67.64;102338.38;5420000;26;19995;-56
2024/04/10 06:47:59;;;;;;;30.00;4.78;;;;;;;11.39;67.04;102345.19;5420937;26;20017;-55
2024/04/10 06:50:25;;;;;;;16.85;4.20;;;;;;;11.68;66.12;102346.78;5424024;26;19995;-49
2024/04/10 06:52:51;;;;;;;15.35;4.30;;;;;;;11.40;66.62;102347.78;5430200;26;20425;-49
2024/04/10 06:55:17;;;;;;;15.77;4.07;;;;;;;11.59;66.41;102350.88;5424002;26;20027;-48
2024/04/10 06:57:43;;;;;;;18.42;3.70;;;;;;;11.43;67.58;102355.59;5422763;26;19996;-50
2024/04/10 07:00:16;;;;;;;19.52;4.55;;;;;;;11.75;65.12;102364.09;5397872;26;20479;-52
2024/04/10 07:02:42;;;;;;;21.30;4.80;;;;;;;11.24;66.28;102360.44;5421301;26;20080;-53
2024/04/10 07:05:08;;;;;;;19.33;4.30;;;;;;;11.04;67.15;102368.91;5428721;26;20013;-53
2024/04/10 07:07:33;;;;;;;16.33;4.38;;;;;;;11.16;66.13;102368.97;5423870;26;20395;-50
2024/04/10 07:09:59;;;;;;;17.77;4.13;;;;;;;11.04;66.57;102379.59;5426345;25;20578;-54
2024/04/10 07:12:25;;;;;;;17.95;4.00;;;;;;;11.51;65.72;102373.75;5395190;26;20347;-55
2024/04/10 07:14:51;;;;;;;20.58;4.55;;;;;;;11.55;65.39;102383.25;5423345;25;20014;-50
2024/04/10 07:17:17;;;;;;;21.75;4.57;;;;;;;11.12;65.92;102390.59;5393674;26;20004;-54
2024/04/10 07:19:42;;;;;;;15.88;4.13;;;;;;;11.33;65.45;102391.00;5417474;26;20524;-49
2024/04/10 07:22:08;;;;;;;14.68;3.63;;;;;;;11.32;65.58;102395.47;5430817;26;19999;-48
2024/04/10 07:24:34;;;;;;;18.73;4.68;;;;;;;11.80;64.19;102395.81;5427413;26;20003;-52
2024/04/10 07:27:00;;;;;;;15.18;3.67;;;;;;;11.88;63.69;102399.66;5434443;26;19995;-52
2024/04/10 07:29:28;;;;;;;19.50;4.75;;;;;;;11.91;63.04;102398.63;5431402;26;20311;-55
2024/04/10 07:31:54;;;;;;;19.98;5.13;;;;;;;11.89;63.01;102405.88;5429303;26;20013;-52
2024/04/10 07:34:20;;;;;;;17.77;4.15;;;;;;;12.00;62.80;102405.97;5429315;26;20434;-53
2024/04/10 07:36:45;;;;;;;17.98;4.05;;;;;;;11.82;62.61;102404.59;5434105;26;20011;-53
2024/04/10 07:39:11;;;;;;;21.77;4.18;;;;;;;11.78;63.41;102411.13;5388222;26;20011;-53
2024/04/10 07:41:37;;;;;;;23.60;5.65;;;;;;;11.75;62.67;102414.84;5430411;26;20425;-51
2024/04/10 07:44:04;;;;;;;18.73;4.30;;;;;;;12.05;61.19;102411.03;5423410;26;19999;-51
2024/04/10 07:46:30;;;;;;;22.30;4.57;;;;;;;12.30;61.27;102411.00;5427588;26;19999;-49
2024/04/10 07:48:59;;;;;;;13.73;3.10;;;;;;;12.66;61.00;102415.59;5434651;26;20022;-53
2024/04/10 07:51:27;;;;;;;15.98;3.78;;;;;;;12.34;60.83;102417.81;5421354;26;20007;-52
2024/04/10 07:53:53;;;;;;;14.68;3.70;;;;;;;12.11;60.98;102418.59;5427570;26;20010;-49
2024/04/10 07:56:20;;;;;;;19.85;4.05;;;;;;;12.41;60.59;102427.13;5420741;25;20015;-53
2024/04/10 07:58:46;;;;;;;16.25;3.97;;;;;;;12.01;60.93;102431.75;5427787;26;20427;-46
2024/04/10 08:01:12;;;;;;;22.10;4.10;;;;;;;12.15;60.33;102439.66;5423099;26;19995;-53
2024/04/10 08:03:38;;;;;;;17.17;3.50;;;;;;;12.58;60.21;102436.63;5430846;26;19999;-53
2024/04/10 08:06:07;;;;;;;16.55;4.65;;;;;;;13.53;58.34;102450.13;5431770;26;20038;-52
2024/04/10 08:08:33;;;;;;;15.88;3.88;;;;;;;13.91;57.06;102453.44;5420680;26;19999;-51
2024/04/10 08:11:03;;;;;;;10.65;3.92;;;;;;;13.26;56.22;102450.38;5426956;26;20014;-55
2024/04/10 08:13:30;;;;;;;12.43;3.05;;;;;;;13.69;56.69;102452.53;5429006;26;19995;-50
2024/04/10 08:16:01;;;;;;;14.48;4.43;;;;;;;13.65;56.70;102454.59;5432809;26;20006;-56
2024/04/10 08:18:28;;;;;;;13.82;4.00;;;;;;;13.38;57.13;102460.16;5427718;26;19995;-49
2024/04/10 08:21:01;;;;;;;23.52;5.15;;;;;;;12.49;57.36;102464.88;5428864;26;20487;-54
2024/04/10 08:23:29;;;;;;;13.10;3.10;;;;;;;12.50;56.58;102466.59;5425187;26;20018;-54
2024/04/10 08:25:55;;;;;;;13.02;3.22;;;;;;;12.68;55.96;102449.25;5419667;26;20006;-51
2024/04/10 08:28:22;;;;;;;12.45;3.97;;;;;;;12.91;56.98;102460.13;5432012;26;20002;-49
2024/04/10 08:30:48;;;;;;;18.08;4.22;;;;;;;13.47;55.16;102450.59;5432865;26;20018;-52
2024/04/10 08:33:15;;;;;;;15.02;3.78;;;;;;;13.38;54.47;102459.31;5431661;26;19999;-49
2024/04/10 08:35:42;;;;;;;13.25;3.45;;;;;;;13.73;53.92;102465.59;5431384;26;20040;-53
2024/04/10 08:38:08;;;;;;;14.95;3.97;;;;;;;14.03;55.12;102467.75;5425120;26;20335;-53
2024/04/10 08:40:37;;;;;;;13.88;3.90;;;;;;;14.37;53.38;102475.84;5422544;26;19999;-56
2024/04/10 08:43:06;;;;;;;14.88;3.60;;;;;;;13.66;53.28;102479.56;5427418;26;20003;-52
2024/04/10 08:45:33;;;;;;;13.40;3.20;;;;;;;13.85;55.11;102482.53;5420997;26;20018;-51
2024/04/10 08:48:02;;;;;;;18.08;3.67;;;;;;;13.92;54.95;102481.97;5421139;25;20621;-53
2024/04/10 08:50:31;;;;;;;15.63;3.83;;;;;;;14.09;54.16;102493.22;5432665;26;20009;-52
2024/04/10 08:52:59;;;;;;;12.27;3.65;;;;;;;14.09;52.50;102493.22;5433201;26;20003;-53
2024/04/10 08:55:27;;;;;;;10.75;3.03;;;;;;;13.12;54.29;102507.63;5424625;25;20010;-50
2024/04/10 08:57:52;;;;;;;15.10;3.75;;;;;;;13.34;53.40;102501.53;5427900;26;20477;-50
2024/04/10 09:00:18;;;;;;;11.20;2.92;;;;;;;13.56;53.58;102516.88;5419571;26;20003;-53
2024/04/10 09:02:44;;;;;;;13.52;3.13;;;;;;;13.24;54.20;102513.88;5422549;26;20032;-50
2024/04/10 09:05:10;;;;;;;12.00;3.15;;;;;;;13.09;54.02;102523.88;5431359;26;20038;-53
2024/04/10 09:07:36;;;;;;;8.85;2.90;;;;;;;13.02;53.90;102529.78;5390220;26;20040;-49
2024/04/10 09:10:09;;;;;;;11.55;3.13;;;;;;;13.15;53.94;102522.59;5427649;26;20027;-52
2024/04/10 09:12:35;;;;;;;9.73;2.55;;;;;;;13.04;53.39;102527.88;5430991;26;20015;-51
2024/04/10 09:15:11;;;;;;;16.45;2.90;;;;;;;14.03;51.35;102526.72;5432939;26;20395;-50
2024/04/10 09:17:37;;;;;;;10.32;2.63;;;;;;;13.86;51.07;102535.19;5424135;25;20014;-53
2024/04/10 09:20:13;;;;;;;10.57;3.22;;;;;;;14.04;50.61;102538.31;5421936;26;20004;-52
2024/04/10 09:22:39;;;;;;;9.52;2.47;;;;;;;14.13;51.51;102529.53;5427925;26;20454;-51
2024/04/10 09:25:12;;;;;;;14.23;2.35;;;;;;;14.12;50.64;102542.09;5430746;26;19999;-50
2024/04/10 09:27:37;;;;;;;9.85;2.58;;;;;;;13.31;52.88;102541.06;5426058;26;20331;-51
2024/04/10 09:30:05;;;;;;;10.45;2.95;;;;;;;13.28;54.06;102552.88;5433112;26;20035;-55
2024/04/10 09:32:36;;;;;;;9.98;2.95;;;;;;;13.22;53.93;102553.28;5427544;26;20010;-54
2024/04/10 09:35:06;;;;;;;10.73;2.90;;;;;;;13.14;53.48;102553.03;5400834;26;20014;-49
2024/04/10 09:37:34;;;;;;;15.13;3.45;;;;;;;12.66;53.74;102542.16;5431470;26;20003;-56
2024/04/10 09:40:01;;;;;;;15.55;3.40;;;;;;;13.63;52.57;102550.28;5432480;26;20018;-53
2024/04/10 09:42:27;;;;;;;19.35;3.67;;;;;;;13.38;53.36;102550.38;5388937;26;20446;-53
2024/04/10 09:45:08;;;;;;;13.50;3.30;;;;;;;13.27;54.95;102563.69;5431220;26;20502;-53
2024/04/10 09:47:36;;;;;;;13.73;3.47;;;;;;;13.70;53.45;102567.63;5425879;26;19999;-55
2024/04/10 09:50:07;;;;;;;11.05;2.95;;;;;;;13.22;52.61;102568.53;5429388;26;20018;-49
2024/04/10 09:52:33;;;;;;;15.73;3.53;;;;;;;13.32;53.63;102580.28;5428812;26;20327;-55
2024/04/10 09:55:00;;;;;;;11.95;3.03;;;;;;;12.93;51.51;102566.13;5426318;26;20018;-51
2024/04/10 09:57:27;;;;;;;12.30;2.50;;;;;;;13.47;51.93;102574.66;5430204;25;20010;-53
2024/04/10 09:59:55;;;;;;;16.45;3.50;;;;;;;14.24;50.33;102567.97;5426911;26;20433;-52
2024/04/10 10:02:20;;;;;;;18.85;3.42;;;;;;;13.82;50.71;102566.72;5419347;26;19999;-52
2024/04/10 10:07:38;;;;;;;14.52;2.63;;;;;;;13.60;50.91;102580.00;5421223;25;20711;-53
2024/04/10 10:10:05;;;;;;;15.85;2.97;;;;;;;13.83;50.84;102579.13;5432580;26;19999;-52
2024/04/10 10:12:31;;;;;;;22.63;3.88;;;;;;;14.30;49.50;102566.66;5426056;25;20014;-47
2024/04/10 10:15:07;;;;;;;11.70;3.08;;;;;;;14.39;47.56;102570.44;5432170;26;19999;-50
2024/04/10 10:17:33;;;;;;;9.13;2.45;;;;;;;14.54;46.75;102572.84;5423229;26;20407;-53
2024/04/10 10:19:58;;;;;;;12.60;1.90;;;;;;;14.90;46.57;102574.47;5421871;26;20013;-55
2024/04/10 10:22:24;;;;;;;11.30;2.28;;;;;;;14.95;46.99;102585.69;5425999;26;20351;-52
2024/04/10 10:24:59;;;;;;;13.55;2.75;;;;;;;14.52;48.98;102587.31;5419967;26;20414;-55
2024/04/10 10:27:26;;;;;;;13.00;2.78;;;;;;;14.36;49.54;102603.75;5385764;26;20337;-51
2024/04/10 10:30:03;;;;;;;15.07;3.65;;;;;;;14.49;47.59;102601.00;5428060;26;20081;-49
2024/04/10 10:32:29;;;;;;;13.88;2.58;;;;;;;14.00;49.15;102596.66;5427013;26;20019;-55
2024/04/10 10:35:13;;;;;;;7.78;2.08;;;;;;;13.87;50.35;102601.22;5394439;26;20596;-48
2024/04/10 10:37:40;;;;;;;9.88;2.50;;;;;;;14.43;48.10;102598.75;5427941;26;20005;-50
2024/04/10 10:40:06;;;;;;;9.70;2.25;;;;;;;14.64;46.64;102607.88;5423215;26;20018;-46
2024/04/10 10:42:33;;;;;;;9.75;2.17;;;;;;;13.94;47.25;102605.16;5425910;25;20014;-54
2024/04/10 10:45:05;;;;;;;8.35;2.65;;;;;;;13.93;46.31;102606.13;5419796;26;19999;-50
2024/04/10 10:47:41;;;;;;;14.13;2.92;;;;;;;13.91;48.03;102602.69;5428635;26;20429;-49
2024/04/10 10:50:07;;;;;;;10.25;2.42;;;;;;;13.63;46.40;102603.88;5419162;26;20334;-50
2024/04/10 10:52:33;;;;;;;9.65;2.20;;;;;;;13.59;47.00;102598.88;5429652;25;20013;-53
2024/04/10 10:55:07;;;;;;;13.68;2.20;;;;;;;13.58;47.33;102592.66;5423578;26;19995;-53
2024/04/10 10:57:34;;;;;;;11.57;2.60;;;;;;;14.49;45.77;102601.00;5421824;25;20014;-49
2024/04/10 11:00:17;;;;;;;20.63;3.22;;;;;;;14.48;46.85;102600.13;5422888;26;20419;-53
2024/04/10 11:02:44;;;;;;;10.52;2.83;;;;;;;14.62;46.32;102591.88;5418071;26;19999;-53
2024/04/10 11:05:12;;;;;;;9.95;2.83;;;;;;;14.19;47.55;102596.09;5431724;26;20003;-54
2024/04/10 11:07:39;;;;;;;14.18;2.80;;;;;;;14.49;45.73;102592.94;5423122;25;20026;-54
2024/04/10 11:10:10;;;;;;;11.00;2.75;;;;;;;14.20;46.50;102587.94;5431460;26;20072;-47
2024/04/10 11:12:36;;;;;;;11.63;2.67;;;;;;;14.76;45.66;102590.81;5418708;26;20451;-52
2024/04/10 11:15:10;;;;;;;12.95;3.92;;;;;;;15.21;44.53;102601.53;5430684;26;19999;-52
2024/04/10 11:17:37;;;;;;;8.07;2.28;;;;;;;15.04;43.72;102586.78;5429577;21;20015;-52
2024/04/10 11:20:11;;;;;;;14.45;3.00;;;;;;;14.55;42.67;102592.47;5421621;26;20007;-53
2024/04/10 11:22:37;;;;;;;10.98;2.97;;;;;;;13.39;43.75;102609.19;5425344;26;20007;-49
2024/04/10 11:25:03;;;;;;;9.98;2.40;;;;;;;14.28;42.96;102612.38;5428659;26;20327;-53
2024/04/10 11:27:29;;;;;;;7.72;1.75;;;;;;;14.72;43.61;102608.97;5417859;26;20031;-50
2024/04/10 11:29:55;;;;;;;13.27;2.53;;;;;;;14.25;43.28;102614.41;5394029;26;20443;-48